Strona główna
METAR-TAF:

METAR-TAF

Lotnisko :

Port lotniczy Asuan

Asuan, Egipt

Szerokość geograficzna: 23-58N, Długość geograficzna: 032-47E, wysokość: 200 m

Aktualna obserwacja pogody

Raport powstał 1 godzina i 28 minut temu, godzina 05:00 UTC
Wiatr 6 kt od północ
Temperatura 11°C
Wilgotność 40%
Ciśnienie 1018 hPa
Widzialność: 7000 m

METAR: HESN 130500Z 35006KT 7000 NSC 11/M02 Q1018 NOSIG

czas: 08:28 (06:28 UTC)

Prognoza

Raport powstał 1 godzina i 28 minut temu, godzina 05:00 UTC
Prognoza ważna od 13 godzina 06 UTC do 14 godzina 12 UTC
Wiatr 10 kt od północ
Widzialność 10 km lub więcej
Brak chmur poniżej 1500 m i brak chmur cumulonimbus

TAF: HESN 130500Z 1306/1412 36010KT CAVOK

Obserwacja i prognoza pogody dla ponad 4000 lotnisk (raport METAR i TAF).

Dostępne stacje oznaczono żółtymi i czerwonymi punktami na mapie.

Najedź kursorem aby zobaczyć nazwę stacji.

Kliknij aby zobaczyć obserwacje i prognozy pogody.

Aby zmienić mapę: kliknij na zielony przycisk z czarnym krzyżykiem, aby powiększyć; na zielony przycisk z myślnikiem, aby pomniejszyć; na zielone strzałki, aby przejść do map sąsiednich.


METAR-TAF: